createdAt,value
2018-06-05T00:01:19.724Z,23.10
2018-06-05T00:04:52.966Z,23.00
2018-06-05T00:08:26.204Z,23.00
2018-06-05T00:11:59.436Z,22.90
2018-06-05T00:22:48.255Z,22.80
2018-06-05T00:26:21.480Z,22.70
2018-06-05T00:29:54.701Z,22.70
2018-06-05T00:33:27.907Z,22.60
2018-06-05T00:37:01.126Z,22.50
2018-06-05T00:40:34.343Z,22.50
2018-06-05T00:47:40.506Z,22.40
2018-06-05T00:51:25.218Z,22.40
2018-06-05T00:54:58.457Z,22.30
2018-06-05T00:58:31.690Z,22.30
2018-06-05T01:02:04.890Z,22.20
2018-06-05T01:05:38.112Z,22.10
2018-06-05T01:09:11.329Z,22.10
2018-06-05T01:12:44.556Z,22.00
2018-06-05T01:16:17.790Z,22.00
2018-06-05T01:19:51.019Z,22.00
2018-06-05T01:23:24.271Z,22.00
2018-06-05T01:26:57.478Z,21.90
2018-06-05T01:30:30.700Z,21.90
2018-06-05T01:34:03.911Z,21.90
2018-06-05T01:37:37.119Z,21.90
2018-06-05T01:41:10.371Z,21.90
2018-06-05T01:44:43.620Z,21.80
2018-06-05T01:48:16.809Z,21.80
2018-06-05T01:51:50.033Z,21.80
2018-06-05T01:55:23.277Z,21.80
2018-06-05T01:58:56.545Z,21.80
2018-06-05T02:02:29.764Z,21.70
2018-06-05T02:06:02.977Z,21.60
2018-06-05T02:09:36.191Z,21.60
2018-06-05T02:13:09.411Z,21.50
2018-06-05T02:16:42.638Z,21.40
2018-06-05T02:20:15.867Z,21.30
2018-06-05T02:23:49.089Z,21.30
2018-06-05T02:30:55.259Z,21.30
2018-06-05T02:34:28.487Z,21.40
2018-06-05T02:41:34.687Z,21.40
2018-06-05T02:45:07.924Z,21.40
2018-06-05T02:48:41.127Z,21.30
2018-06-05T02:52:14.345Z,21.20
2018-06-05T02:55:47.559Z,21.20
2018-06-05T02:59:20.766Z,21.10
2018-06-05T03:02:54.374Z,21.20
2018-06-05T03:06:27.590Z,21.10
2018-06-05T03:10:00.824Z,21.10
2018-06-05T03:13:34.081Z,21.20
2018-06-05T03:17:07.295Z,21.20
2018-06-05T03:20:40.503Z,21.10
2018-06-05T03:24:13.721Z,21.10
2018-06-05T03:27:46.944Z,21.10
2018-06-05T03:31:20.165Z,21.10
2018-06-05T03:34:53.372Z,21.20
2018-06-05T03:41:59.556Z,21.20
2018-06-05T03:49:05.795Z,21.10
2018-06-05T03:52:39.033Z,21.10
2018-06-05T03:56:12.272Z,21.10
2018-06-05T03:59:45.491Z,21.10
2018-06-05T04:03:18.716Z,21.10
2018-06-05T04:06:51.971Z,21.10
2018-06-05T04:10:25.202Z,21.00
2018-06-05T04:13:58.431Z,21.00
2018-06-05T04:17:31.662Z,21.00
2018-06-05T04:21:04.881Z,21.00
2018-06-05T04:24:38.191Z,21.00
2018-06-05T04:28:11.413Z,21.10
2018-06-05T04:31:44.635Z,21.10
2018-06-05T04:35:17.855Z,21.00
2018-06-05T04:38:51.089Z,21.00
2018-06-05T04:42:24.307Z,21.00
2018-06-05T04:45:57.786Z,21.00
2018-06-05T04:49:31.025Z,21.00
2018-06-05T04:53:04.255Z,21.00
2018-06-05T04:56:37.499Z,21.00
2018-06-05T05:00:10.753Z,21.00
2018-06-05T05:03:43.972Z,21.00
2018-06-05T05:07:17.194Z,21.00
2018-06-05T05:10:50.440Z,21.10
2018-06-05T05:17:56.738Z,21.20
2018-06-05T05:21:29.967Z,21.30
2018-06-05T05:25:03.223Z,21.40
2018-06-05T05:28:36.466Z,21.60
2018-06-05T05:32:09.716Z,21.70
2018-06-05T05:35:43.008Z,21.90
2018-06-05T05:39:16.385Z,22.10
2018-06-05T05:42:49.547Z,22.20
2018-06-05T05:46:22.767Z,22.40
2018-06-05T05:49:56.012Z,22.50
2018-06-05T05:53:29.231Z,22.50
2018-06-05T06:00:35.455Z,22.70
2018-06-05T06:04:08.682Z,22.80
2018-06-05T06:07:41.928Z,22.90
2018-06-05T06:14:49.323Z,23.10
2018-06-05T06:18:22.533Z,23.20
2018-06-05T06:21:55.768Z,23.30
2018-06-05T06:25:29.024Z,23.30
2018-06-05T06:29:02.260Z,23.40
2018-06-05T06:32:35.515Z,23.50
2018-06-05T06:36:08.746Z,23.60
2018-06-05T06:43:14.943Z,23.90
2018-06-05T06:50:21.168Z,24.10
2018-06-05T06:53:55.091Z,24.30
2018-06-05T06:57:29.036Z,24.40
2018-06-05T07:01:02.276Z,24.50
2018-06-05T07:04:35.523Z,24.50
2018-06-05T07:08:08.762Z,24.70
2018-06-05T07:15:15.004Z,24.80
2018-06-05T07:18:48.276Z,24.80
2018-06-05T07:22:21.496Z,25.00
2018-06-05T07:25:54.728Z,25.20
2018-06-05T07:29:27.959Z,25.20
2018-06-05T07:33:02.323Z,25.30
2018-06-05T07:36:35.568Z,25.30
2018-06-05T07:40:08.920Z,25.40
2018-06-05T07:43:42.154Z,25.40
2018-06-05T07:47:15.372Z,25.50
2018-06-05T07:50:48.587Z,25.70
2018-06-05T07:54:21.836Z,25.80
2018-06-05T07:57:55.133Z,25.90
2018-06-05T08:01:28.363Z,26.00
2018-06-05T08:05:01.691Z,26.10
2018-06-05T08:08:34.914Z,26.30
2018-06-05T08:12:08.127Z,26.40
2018-06-05T08:15:41.379Z,26.50
2018-06-05T08:19:14.591Z,26.50
2018-06-05T08:22:52.089Z,26.50
2018-06-05T08:26:31.494Z,26.60
2018-06-05T08:30:04.723Z,26.70
2018-06-05T08:33:37.953Z,26.80
2018-06-05T08:37:11.204Z,26.80
2018-06-05T08:40:44.443Z,26.90
2018-06-05T08:44:17.682Z,26.90
2018-06-05T08:47:50.914Z,27.00
2018-06-05T08:51:24.143Z,27.00
2018-06-05T08:54:57.371Z,27.10
2018-06-05T08:58:30.636Z,27.30
2018-06-05T09:02:03.886Z,27.40
2018-06-05T09:05:37.140Z,27.60
2018-06-05T09:09:10.447Z,27.60
2018-06-05T09:12:43.719Z,27.70
2018-06-05T09:16:16.939Z,27.70
2018-06-05T09:19:50.198Z,27.80
2018-06-05T09:23:23.450Z,27.90
2018-06-05T09:26:56.687Z,27.90
2018-06-05T09:30:29.939Z,27.90
2018-06-05T09:34:03.175Z,28.00
2018-06-05T09:37:36.455Z,27.90
2018-06-05T09:41:09.718Z,27.80
2018-06-05T09:44:42.954Z,27.80
2018-06-05T09:48:16.212Z,27.90
2018-06-05T09:55:22.517Z,28.00
2018-06-05T09:58:55.800Z,28.10
2018-06-05T10:02:29.051Z,28.10
2018-06-05T10:06:02.300Z,28.10
2018-06-05T10:13:08.552Z,28.20
2018-06-05T10:16:41.845Z,28.30
2018-06-05T10:20:15.095Z,28.40
2018-06-05T10:27:21.368Z,28.70
2018-06-05T10:30:54.600Z,28.70
2018-06-05T10:34:27.831Z,28.50
2018-06-05T10:38:01.080Z,28.50
2018-06-05T10:41:34.321Z,28.50
2018-06-05T10:45:07.544Z,28.60
2018-06-05T10:48:40.767Z,28.70
2018-06-05T10:52:14.076Z,28.70
2018-06-05T10:55:47.314Z,28.80
2018-06-05T10:59:20.544Z,29.00
2018-06-05T11:02:53.776Z,29.10
2018-06-05T11:06:27.031Z,29.10
2018-06-05T11:10:00.280Z,29.10
2018-06-05T11:20:39.527Z,28.80
2018-06-05T11:24:12.823Z,28.70
2018-06-05T11:27:46.004Z,28.70
2018-06-05T11:31:19.260Z,28.60
2018-06-05T11:34:52.523Z,28.60
2018-06-05T11:38:25.760Z,28.70
2018-06-05T11:41:59.031Z,28.80
2018-06-05T11:45:32.281Z,29.00
2018-06-05T12:03:17.472Z,29.20
2018-06-05T12:06:50.715Z,29.20
2018-06-05T12:10:23.963Z,29.20
2018-06-05T12:13:57.189Z,29.10
2018-06-05T12:17:30.447Z,29.10
2018-06-05T12:24:36.640Z,29.20
2018-06-05T12:31:42.875Z,29.00
2018-06-05T12:35:16.113Z,29.00
2018-06-05T12:38:49.367Z,29.00
2018-06-05T12:42:22.604Z,29.10
2018-06-05T12:45:55.860Z,29.20
2018-06-05T12:49:29.187Z,29.30
2018-06-05T12:53:02.444Z,29.20
2018-06-05T12:56:35.726Z,29.10
2018-06-05T13:00:09.776Z,29.10
2018-06-05T13:03:43.007Z,29.10
2018-06-05T13:07:16.238Z,29.20
2018-06-05T13:10:49.469Z,29.30
2018-06-05T13:14:22.722Z,29.30
2018-06-05T13:17:55.961Z,29.40
2018-06-05T13:28:35.164Z,29.90
2018-06-05T13:32:08.427Z,29.90
2018-06-05T13:35:41.672Z,30.00
2018-06-05T13:39:14.930Z,30.20
2018-06-05T13:46:21.216Z,30.50
2018-06-05T13:49:54.442Z,30.70
2018-06-05T13:53:27.675Z,30.90
2018-06-05T13:57:00.924Z,31.00
2018-06-05T14:00:34.143Z,31.20
2018-06-05T14:04:07.392Z,31.30
2018-06-05T14:07:40.626Z,31.40
2018-06-05T14:11:13.840Z,31.70
2018-06-05T14:14:47.079Z,31.80
2018-06-05T14:18:20.305Z,31.90
2018-06-05T14:21:53.552Z,32.10
2018-06-05T14:25:26.791Z,32.30
2018-06-05T14:29:00.109Z,32.60
2018-06-05T14:32:33.301Z,32.80
2018-06-05T14:36:06.707Z,33.00
2018-06-05T14:39:39.950Z,33.20
2018-06-05T14:43:13.187Z,33.40
2018-06-05T14:46:46.488Z,33.60
2018-06-05T14:50:19.695Z,33.90
2018-06-05T14:53:52.935Z,34.20
2018-06-05T15:00:59.167Z,34.50
2018-06-05T15:04:32.399Z,34.70
2018-06-05T15:11:39.040Z,34.70
2018-06-05T15:15:12.275Z,34.60
2018-06-05T15:18:45.545Z,34.70
2018-06-05T15:22:18.762Z,34.80
2018-06-05T15:25:52.098Z,35.10
2018-06-05T15:29:25.339Z,35.50
2018-06-05T15:32:58.576Z,35.70
2018-06-05T15:36:31.804Z,35.90
2018-06-05T15:40:05.104Z,36.10
2018-06-05T15:43:38.355Z,36.20
2018-06-05T15:47:11.609Z,36.20
2018-06-05T16:04:48.023Z,36.30
2018-06-05T16:08:21.455Z,36.60
2018-06-05T16:13:20.568Z,36.70
2018-06-05T16:16:56.688Z,36.80
2018-06-05T16:20:53.801Z,36.80
2018-06-05T16:24:50.121Z,36.40
2018-06-05T16:32:38.808Z,34.90
2018-06-05T16:36:31.058Z,34.00
2018-06-05T16:40:04.332Z,33.40
2018-06-05T16:43:37.567Z,32.70
2018-06-05T16:47:10.820Z,32.30
2018-06-05T16:50:44.036Z,32.00
2018-06-05T16:54:17.279Z,31.70
2018-06-05T16:57:50.556Z,31.60
2018-06-05T17:01:23.775Z,31.30
2018-06-05T17:04:57.013Z,31.10
2018-06-05T17:08:30.240Z,30.90
2018-06-05T17:12:03.487Z,30.60
2018-06-05T17:15:36.700Z,30.40
2018-06-05T17:22:42.900Z,29.80
2018-06-05T17:29:49.100Z,29.40
2018-06-05T17:33:22.342Z,29.20
2018-06-05T17:36:55.601Z,29.00
2018-06-05T17:40:28.905Z,28.80
2018-06-05T17:44:02.709Z,28.70
2018-06-05T17:47:39.600Z,28.50
2018-06-05T17:51:12.811Z,28.40
2018-06-05T17:54:46.288Z,28.20
2018-06-05T17:58:21.492Z,28.10
2018-06-05T18:01:54.750Z,28.00
2018-06-05T18:05:27.971Z,27.90
2018-06-05T18:09:01.207Z,27.80
2018-06-05T18:12:34.505Z,27.70
2018-06-05T18:16:07.682Z,27.70
2018-06-05T18:19:40.952Z,27.60
2018-06-05T18:23:14.188Z,27.50
2018-06-05T18:26:47.445Z,27.40
2018-06-05T18:30:20.696Z,27.30
2018-06-05T18:33:53.948Z,27.30
2018-06-05T18:37:27.191Z,27.20
2018-06-05T18:41:00.443Z,27.10
2018-06-05T18:44:33.675Z,27.00
2018-06-05T18:48:06.943Z,26.90
2018-06-05T18:51:40.199Z,26.70
2018-06-05T18:55:13.440Z,26.70
2018-06-05T18:58:46.691Z,26.60
2018-06-05T19:02:19.940Z,26.50
2018-06-05T19:05:53.159Z,26.40
2018-06-05T19:09:26.390Z,26.30
2018-06-05T19:12:59.657Z,26.20
2018-06-05T19:16:32.920Z,26.10
2018-06-05T19:20:06.147Z,26.00
2018-06-05T19:23:39.400Z,25.90
2018-06-05T19:27:12.670Z,25.80
2018-06-05T19:30:45.904Z,25.70
2018-06-05T19:34:19.144Z,25.60
2018-06-05T19:37:52.377Z,25.50
2018-06-05T19:41:26.631Z,25.50
2018-06-05T19:44:59.875Z,25.40
2018-06-05T19:48:33.159Z,25.40
2018-06-05T19:55:39.440Z,25.30
2018-06-05T19:59:12.824Z,25.20
2018-06-05T20:02:46.074Z,25.10
2018-06-05T20:06:19.307Z,25.10
2018-06-05T20:09:52.567Z,25.00
2018-06-05T20:13:25.839Z,24.90
2018-06-05T20:20:32.060Z,24.70
2018-06-05T20:24:05.360Z,24.60
2018-06-05T20:27:38.613Z,24.50
2018-06-05T20:31:11.868Z,24.50
2018-06-05T20:34:45.099Z,24.40
2018-06-05T20:38:18.329Z,24.30
2018-06-05T20:45:24.544Z,24.10
2018-06-05T20:48:57.767Z,24.00
2018-06-05T20:52:31.008Z,23.90
2018-06-05T20:56:04.243Z,23.90
2018-06-05T20:59:37.497Z,23.80
2018-06-05T21:03:10.749Z,23.80
2018-06-05T21:06:43.981Z,23.70
2018-06-05T21:10:17.211Z,23.70
2018-06-05T21:13:50.441Z,23.60
2018-06-05T21:17:23.664Z,23.50
2018-06-05T21:20:56.899Z,23.50
2018-06-05T21:24:30.166Z,23.40
2018-06-05T21:28:03.375Z,23.40
2018-06-05T21:31:36.606Z,23.30
2018-06-05T21:35:09.847Z,23.20
2018-06-05T21:38:43.143Z,23.20
2018-06-05T21:42:16.371Z,23.10
2018-06-05T21:45:49.603Z,23.10
2018-06-05T21:49:22.827Z,23.00
2018-06-05T21:56:29.056Z,23.00
2018-06-05T22:00:02.301Z,22.90
2018-06-05T22:07:08.632Z,22.90
2018-06-05T22:10:41.902Z,22.80
2018-06-05T22:17:51.074Z,22.70
2018-06-05T22:24:57.299Z,22.70
2018-06-05T22:28:30.540Z,22.60
2018-06-05T22:32:03.768Z,22.60
2018-06-05T22:35:36.995Z,22.50
2018-06-05T22:39:10.307Z,22.50
2018-06-05T22:42:43.535Z,22.40
2018-06-05T22:46:16.778Z,22.30
2018-06-05T22:49:50.003Z,22.20
2018-06-05T22:53:23.240Z,22.20
2018-06-05T22:56:56.471Z,22.20
2018-06-05T23:00:31.823Z,22.20
2018-06-05T23:04:05.284Z,22.10
2018-06-05T23:07:38.529Z,22.10
2018-06-05T23:11:11.783Z,22.00
2018-06-05T23:14:45.036Z,21.90
2018-06-05T23:18:18.261Z,21.90
2018-06-05T23:21:51.495Z,21.80
2018-06-05T23:25:24.735Z,21.80
2018-06-05T23:28:57.959Z,21.70
2018-06-05T23:32:31.178Z,21.70
2018-06-05T23:36:04.437Z,21.60
2018-06-05T23:39:37.703Z,21.60
2018-06-05T23:46:43.975Z,21.50
2018-06-05T23:50:17.212Z,21.50
2018-06-05T23:53:50.473Z,21.40
2018-06-05T23:57:23.723Z,21.40
